Station: Grafenwoehr, ICAO: ETIC, Synop: Synop: 10687,
Koordinaten: 4942'00''N 01157'00''E, Hoehe: 415m, Entfernung: 18.62km
2017/12/15 04:26
ETIC 150426Z AUTO 19003KT 3200 R32/1500 -SN BR BKN003 OVC008 01/00 A2929 RMK AO2 VIS 3200V5000 SLP937 FZRANO $


Station: GRAFENWOHR (USA, ICAO: EDIC, Synop: ,
Koordinaten: 49 42 N 011 56 E, Hoehe: 415m, Entfernung: 19.81km


Station: Kuemmersruck, ICAO: ETGK, Synop: Synop: 10771,
Koordinaten: 4926'00''N 01154'00''E, Hoehe: 419m, Entfernung: 35.94km


Station: GAERMERSDORF, ICAO: EDZH, Synop: ,
Koordinaten: 49 25 N 011 54 E, Hoehe: 419m, Entfernung: 37.41km


Station: Bayreuth, ICAO: EDQD, Synop: Synop: 10677,
Koordinaten: 4959'00''N 01138'00''E, Hoehe: 488m, Entfernung: 52.71km
2007/07/01 15:50
EDQD 011550Z 01011KT CAVOK 23/15 Q1012


Station: Hohenfels, ICAO: ETIH, Synop: Synop: 10775,
Koordinaten: 4913'00''N 01150'00''E, Hoehe: 442m, Entfernung: 58.91km
2017/12/15 03:56
ETIH 150356Z AUTO 22007G19KT 9999 -RA OVC012 04/03 A2934 RMK AO2 RAB49 SLP953 P0000 T00360027 $


mehr Wetter
WetterInfo - adds.pl 2.6.003 DL3EL © 2004-2017 [154950]